Time;durP1;ratioP1;P1;durP2;ratioP2;P2;SDS_P1;SDS_P2;PMS_P1;PMS_P2;Temp;Humidity;BMP_temperature;BMP_pressure;BME280_temperature;BME280_humidity;BME280_pressure;Samples;Min_cycle;Max_cycle;Signal;HPM_P1;HPM_P2
2024/03/02 00:00:54;;;;;;;21.52;10.88;;;;;;;5.67;97.49;99946.59;5065320;28;20021;-67
2024/03/02 00:03:22;;;;;;;32.97;15.18;;;;;;;5.65;97.32;99946.59;5047579;28;20076;-67
2024/03/02 00:05:54;;;;;;;19.75;9.75;;;;;;;5.63;97.39;99939.69;5064960;28;20048;-67
2024/03/02 00:08:22;;;;;;;;;;;;;;;5.72;96.96;99949.19;5065768;28;20106;-66
2024/03/02 00:10:48;;;;;;;20.85;5.55;;;;;;;5.68;97.09;99948.31;5065254;28;20296;-67
2024/03/02 00:13:14;;;;;;;6.22;5.60;;;;;;;5.63;97.16;99942.25;5047110;28;20021;-66
2024/03/02 00:15:47;;;;;;;12.25;5.55;;;;;;;5.69;96.66;99940.59;5047022;28;20399;-66
2024/03/02 00:18:18;;;;;;;18.77;8.30;;;;;;;5.70;96.43;99954.34;5046939;28;20029;-66
2024/03/02 00:20:44;;;;;;;14.73;8.77;;;;;;;5.61;97.03;99952.56;5064888;28;20025;-66
2024/03/02 00:23:14;;;;;;;13.07;9.82;;;;;;;5.56;96.97;99943.94;5064823;28;20127;-66
2024/03/02 00:25:48;;;;;;;22.95;11.95;;;;;;;5.55;96.95;99948.25;5065207;28;20025;-66
2024/03/02 00:28:22;;;;;;;31.77;13.73;;;;;;;5.51;97.40;99953.38;5064653;28;20108;-67
2024/03/02 00:31:02;;;;;;;25.58;12.80;;;;;;;5.53;97.36;99954.22;5046995;28;20040;-65
2024/03/02 00:33:33;;;;;;;12.27;10.20;;;;;;;5.51;97.39;99954.22;5064608;28;20021;-66
2024/03/02 00:36:03;;;;;;;25.40;11.02;;;;;;;5.51;97.46;99945.66;5064612;28;20028;-66
2024/03/02 00:38:32;;;;;;;18.00;6.35;;;;;;;5.54;97.24;99953.41;5064710;28;20036;-66
2024/03/02 00:41:06;;;;;;;9.05;3.60;;;;;;;5.54;97.47;99959.38;5064626;28;20044;-66
2024/03/02 00:43:40;;;;;;;31.70;12.80;;;;;;;5.51;97.12;99961.09;5064640;28;20025;-66
2024/03/02 00:46:06;;;;;;;12.30;8.50;;;;;;;5.55;97.22;99957.69;5064649;28;20045;-67
2024/03/02 00:48:35;;;;;;;33.88;15.35;;;;;;;5.53;97.03;99956.81;5064405;28;20040;-66
2024/03/02 00:51:01;;;;;;;19.13;9.23;;;;;;;5.53;97.19;99964.53;5046473;28;20041;-65
2024/03/02 00:53:26;;;;;;;8.52;4.47;;;;;;;5.55;97.32;99971.44;5064658;28;20311;-66
2024/03/02 00:55:52;;;;;;;16.85;11.95;;;;;;;5.56;97.11;99965.41;5064812;28;20062;-66
2024/03/02 00:58:18;;;;;;;12.73;6.47;;;;;;;5.47;97.73;99957.66;5064509;28;20029;-66
2024/03/02 01:00:43;;;;;;;31.13;10.27;;;;;;;5.48;97.71;99961.09;5064324;28;20032;-66
2024/03/02 01:03:10;;;;;;;15.43;6.72;;;;;;;5.57;97.42;99966.28;5064379;28;20025;-66
2024/03/02 01:05:36;;;;;;;6.55;5.60;;;;;;;5.62;97.59;99963.72;5064370;28;20040;-67
2024/03/02 01:08:01;;;;;;;27.15;9.50;;;;;;;5.60;97.00;99960.28;5064433;28;20392;-66
2024/03/02 01:10:26;;;;;;;47.78;17.17;;;;;;;5.57;97.63;99967.13;5046238;28;20025;-66
2024/03/02 01:12:52;;;;;;;24.77;11.73;;;;;;;5.58;97.79;99963.72;5064316;28;20021;-66
2024/03/02 01:15:17;;;;;;;7.53;5.10;;;;;;;5.66;97.40;99958.59;5046393;28;20028;-66
2024/03/02 01:17:43;;;;;;;3.60;2.75;;;;;;;5.73;97.18;99974.09;5046088;28;20059;-67
2024/03/02 01:20:09;;;;;;;15.95;8.80;;;;;;;5.70;96.44;99970.63;5046453;28;20044;-65
2024/03/02 01:22:35;;;;;;;32.50;12.02;;;;;;;5.62;97.50;99977.47;5046116;28;20473;-66
2024/03/02 01:25:01;;;;;;;37.92;13.48;;;;;;;5.75;96.35;99974.97;5064306;28;20025;-66
2024/03/02 01:27:26;;;;;;;9.43;8.45;;;;;;;5.71;96.53;99966.34;5063918;28;20031;-66
2024/03/02 01:29:52;;;;;;;24.13;12.65;;;;;;;5.62;96.80;99967.19;5064130;28;20026;-66
2024/03/02 01:32:17;;;;;;;18.38;10.23;;;;;;;5.70;96.21;99973.19;5064056;28;20025;-65
2024/03/02 01:34:43;;;;;;;24.02;12.98;;;;;;;5.60;96.71;99974.03;5064193;28;20207;-65
2024/03/02 01:37:09;;;;;;;31.52;10.18;;;;;;;5.56;96.95;99972.25;5063889;28;20100;-67
2024/03/02 01:39:35;;;;;;;18.63;7.40;;;;;;;5.72;96.44;99970.63;5066509;28;20021;-66
2024/03/02 01:42:01;;;;;;;6.13;2.88;;;;;;;5.68;96.70;99968.91;5067761;28;20025;-66
2024/03/02 01:44:26;;;;;;;12.50;8.35;;;;;;;5.69;95.75;99955.16;5049339;28;20056;-66
2024/03/02 01:46:51;;;;;;;18.00;8.55;;;;;;;5.57;96.56;99946.53;5067707;28;20039;-67
2024/03/02 01:49:17;;;;;;;14.00;10.02;;;;;;;5.53;97.19;99956.81;5067428;28;20055;-65
2024/03/02 01:51:42;;;;;;;11.40;7.80;;;;;;;5.54;97.35;99949.09;5067289;28;20032;-66
2024/03/02 01:54:07;;;;;;;14.38;5.72;;;;;;;5.55;97.22;99948.25;5067382;28;20503;-66
2024/03/02 01:56:33;;;;;;;28.20;6.65;;;;;;;5.53;96.85;99936.19;5067302;28;20100;-65
2024/03/02 01:58:58;;;;;;;36.67;14.32;;;;;;;5.53;97.08;99943.94;5049366;28;20492;-66
2024/03/02 02:01:24;;;;;;;13.38;8.63;;;;;;;5.48;97.43;99932.78;5067259;28;20459;-66
2024/03/02 02:03:49;;;;;;;11.95;8.32;;;;;;;5.52;97.84;99929.34;5067164;28;20017;-67
2024/03/02 02:06:14;;;;;;;23.55;10.45;;;;;;;5.53;97.67;99931.06;5067326;28;20123;-66
2024/03/02 02:08:40;;;;;;;20.27;11.05;;;;;;;5.55;97.67;99921.63;5067270;28;20025;-67
2024/03/02 02:11:06;;;;;;;35.55;12.88;;;;;;;5.55;97.27;99919.94;5067118;28;20087;-66
2024/03/02 02:13:31;;;;;;;27.63;11.20;;;;;;;5.54;97.61;99920.75;5066961;28;20056;-66
2024/03/02 02:16:05;;;;;;;29.45;11.13;;;;;;;5.54;97.79;99918.19;5067112;28;20024;-67
2024/03/02 02:18:30;;;;;;;25.42;9.23;;;;;;;5.49;97.42;99913.88;5066878;28;20053;-66
2024/03/02 02:20:56;;;;;;;28.58;11.88;;;;;;;5.58;97.25;99924.22;5067024;28;20478;-66
2024/03/02 02:23:21;;;;;;;20.77;12.10;;;;;;;5.55;97.41;99922.50;5048926;28;20025;-66
2024/03/02 02:25:46;;;;;;;9.82;8.45;;;;;;;5.56;97.69;99923.34;5048860;28;20029;-67
2024/03/02 02:28:12;;;;;;;25.25;11.20;;;;;;;5.53;97.33;99913.03;5066835;28;20092;-66
2024/03/02 02:30:37;;;;;;;18.63;11.30;;;;;;;5.53;97.12;99911.31;5066917;28;20028;-66
2024/03/02 02:33:03;;;;;;;13.68;9.00;;;;;;;5.48;97.28;99889.00;5066646;28;20050;-66
2024/03/02 02:35:29;;;;;;;31.73;9.98;;;;;;;5.53;97.40;99907.88;5066651;28;20032;-66
2024/03/02 02:37:56;;;;;;;40.88;12.02;;;;;;;5.52;97.19;99901.03;5066665;28;20017;-66
2024/03/02 02:40:22;;;;;;;23.27;12.73;;;;;;;5.51;97.46;99899.31;5066556;28;20070;-66
2024/03/02 02:42:48;;;;;;;18.77;12.68;;;;;;;5.50;97.42;99901.00;5066689;28;20025;-66
2024/03/02 02:45:14;;;;;;;24.33;11.73;;;;;;;5.48;97.23;99889.84;5066354;28;20127;-67
2024/03/02 02:47:40;;;;;;;26.27;14.20;;;;;;;5.47;97.08;99898.44;5048512;28;20132;-66
2024/03/02 02:50:09;;;;;;;33.40;12.85;;;;;;;5.44;97.29;99894.13;5065322;28;20077;-67
2024/03/02 02:52:36;;;;;;;14.20;11.18;;;;;;;5.46;97.17;99882.09;5048192;28;20033;-66
2024/03/02 02:55:07;;;;;;;20.75;11.25;;;;;;;5.46;97.43;99870.97;5066531;28;20108;-66
2024/03/02 02:57:36;;;;;;;24.05;11.40;;;;;;;5.46;97.48;99866.66;5066479;28;20031;-66
2024/03/02 03:00:05;;;;;;;21.80;10.98;;;;;;;5.47;97.18;99870.09;5066413;28;20021;-66
2024/03/02 03:02:30;;;;;;;44.80;14.90;;;;;;;5.46;97.43;99864.09;5048283;28;20056;-67
2024/03/02 03:04:57;;;;;;;14.88;8.23;;;;;;;5.44;97.73;99860.66;5048104;28;20021;-66
2024/03/02 03:07:22;;;;;;;33.30;12.70;;;;;;;5.46;97.67;99865.81;5066099;28;20035;-66
2024/03/02 03:09:48;;;;;;;29.65;12.55;;;;;;;5.41;97.58;99863.22;5066054;28;20032;-66
2024/03/02 03:12:13;;;;;;;16.88;9.43;;;;;;;5.45;97.62;99874.38;5047824;28;20021;-67
2024/03/02 03:14:40;;;;;;;28.27;10.77;;;;;;;5.39;97.48;99874.34;5066044;28;20034;-67
2024/03/02 03:17:08;;;;;;;22.42;11.07;;;;;;;5.33;97.32;99864.91;5047992;28;20020;-67
2024/03/02 03:19:33;;;;;;;17.27;11.25;;;;;;;5.34;97.35;99874.34;5065964;28;20029;-66
2024/03/02 03:21:58;;;;;;;23.50;7.07;;;;;;;5.31;97.47;99876.91;5065511;28;20358;-66
2024/03/02 03:24:24;;;;;;;15.88;9.77;;;;;;;5.29;97.26;99876.88;5065897;28;20025;-65
2024/03/02 03:26:49;;;;;;;25.83;10.63;;;;;;;5.26;97.28;99876.88;5065760;28;20028;-65
2024/03/02 03:29:14;;;;;;;14.38;9.68;;;;;;;5.25;97.74;99874.31;5065648;28;20017;-66
2024/03/02 03:31:40;;;;;;;24.00;13.85;;;;;;;5.24;97.52;99870.00;5065768;28;20108;-65
2024/03/02 03:34:05;;;;;;;26.90;9.57;;;;;;;5.24;97.34;99870.00;5065554;28;20032;-65
2024/03/02 03:36:31;;;;;;;14.27;8.23;;;;;;;5.19;97.40;99868.25;5065446;28;20450;-67
2024/03/02 03:38:57;;;;;;;27.42;11.20;;;;;;;5.19;97.37;99872.56;5047599;28;20017;-65
2024/03/02 03:41:22;;;;;;;19.33;9.25;;;;;;;5.17;97.64;99871.69;5047594;28;20024;-67
2024/03/02 03:43:48;;;;;;;34.53;9.63;;;;;;;5.17;97.52;99877.72;5065509;28;20028;-66
2024/03/02 03:46:13;;;;;;;26.10;10.32;;;;;;;5.14;97.55;99872.53;5065154;28;20052;-66
2024/03/02 03:48:39;;;;;;;15.95;7.60;;;;;;;5.13;97.59;99870.81;5065291;28;20025;-66
2024/03/02 03:51:04;;;;;;;20.77;11.48;;;;;;;5.10;97.68;99865.66;5065011;28;20029;-65
2024/03/02 03:53:29;;;;;;;17.17;9.07;;;;;;;5.08;97.16;99869.91;5065198;28;20024;-66
2024/03/02 03:55:55;;;;;;;17.67;9.60;;;;;;;5.09;97.61;99869.06;5047238;28;20079;-65
2024/03/02 03:58:20;;;;;;;23.88;12.45;;;;;;;5.08;97.64;99880.19;5047160;28;20025;-66
2024/03/02 04:00:46;;;;;;;22.40;9.60;;;;;;;5.07;97.75;99879.38;5065047;28;20117;-66
2024/03/02 04:03:11;;;;;;;25.48;10.82;;;;;;;5.07;97.84;99881.94;5046886;28;20032;-66
2024/03/02 04:05:38;;;;;;;21.90;8.30;;;;;;;5.06;97.86;99881.94;5065168;28;20017;-66
2024/03/02 04:08:04;;;;;;;31.48;9.88;;;;;;;5.04;97.88;99875.91;5065137;28;20032;-66
2024/03/02 04:10:30;;;;;;;20.15;10.25;;;;;;;5.07;98.23;99873.34;5065039;28;20025;-65
2024/03/02 04:12:55;;;;;;;27.55;11.50;;;;;;;5.06;98.28;99869.06;5064888;28;20025;-66
2024/03/02 04:15:22;;;;;;;31.77;7.57;;;;;;;4.96;98.32;99868.16;5046971;28;20025;-65
2024/03/02 04:17:48;;;;;;;29.52;10.40;;;;;;;4.94;97.96;99855.28;5064969;28;20020;-65
2024/03/02 04:20:13;;;;;;;15.25;6.93;;;;;;;5.02;98.22;99865.59;5064886;28;20047;-66
2024/03/02 04:22:39;;;;;;;24.23;9.18;;;;;;;5.00;97.97;99853.59;5046608;28;20021;-66
2024/03/02 04:25:04;;;;;;;17.48;8.10;;;;;;;5.00;98.15;99856.16;5064861;28;20020;-66
2024/03/02 04:27:31;;;;;;;18.67;9.68;;;;;;;4.99;98.33;99864.72;5064873;28;20274;-66
2024/03/02 04:29:56;;;;;;;14.35;10.27;;;;;;;4.98;98.07;99856.16;5064888;28;20040;-66
2024/03/02 04:32:22;;;;;;;23.13;8.48;;;;;;;4.95;98.28;99851.00;5046936;28;20029;-66
2024/03/02 04:34:47;;;;;;;15.32;7.50;;;;;;;4.99;98.53;99852.72;5064791;28;20031;-66
2024/03/02 04:37:14;;;;;;;17.25;9.15;;;;;;;4.95;98.33;99848.44;5064352;28;20411;-66
2024/03/02 04:39:39;;;;;;;23.73;10.50;;;;;;;4.95;98.56;99851.00;5064705;28;20021;-66
2024/03/02 04:42:04;;;;;;;22.10;10.77;;;;;;;4.98;98.53;99850.16;5064740;28;20028;-66
2024/03/02 04:44:30;;;;;;;33.05;10.07;;;;;;;4.96;98.49;99843.28;5064528;28;20148;-66
2024/03/02 04:46:55;;;;;;;12.57;6.95;;;;;;;4.96;98.46;99843.28;5046536;28;20051;-65
2024/03/02 04:49:21;;;;;;;27.52;9.20;;;;;;;4.99;98.12;99844.13;5064621;28;20029;-66
2024/03/02 04:51:46;;;;;;;19.63;13.00;;;;;;;4.96;98.61;99843.28;5064628;28;20021;-65
2024/03/02 04:54:13;;;;;;;20.88;8.45;;;;;;;4.99;98.72;99854.44;5064472;28;20043;-65
2024/03/02 04:57:00;;;;;;;23.73;9.88;;;;;;;4.98;98.65;99847.56;5064613;28;20048;-66
2024/03/02 04:59:25;;;;;;;11.82;5.68;;;;;;;5.04;98.95;99852.75;5063962;28;20044;-65
2024/03/02 05:01:50;;;;;;;24.13;8.93;;;;;;;5.03;98.73;99851.03;5064581;28;20021;-65
2024/03/02 05:04:15;;;;;;;24.08;9.40;;;;;;;5.07;98.86;99857.91;5064589;28;20079;-66
2024/03/02 05:06:41;;;;;;;28.02;12.13;;;;;;;5.10;98.81;99860.50;5064356;28;20439;-66
2024/03/02 05:09:07;;;;;;;22.05;9.77;;;;;;;5.10;98.69;99857.09;5064346;28;20070;-66
2024/03/02 05:14:07;;;;;;;36.30;13.02;;;;;;;5.14;98.95;99844.25;5066100;28;20142;-66
2024/03/02 05:16:34;;;;;;;14.35;9.32;;;;;;;5.17;98.95;99849.41;5050448;28;20036;-67
2024/03/02 05:18:59;;;;;;;18.05;9.18;;;;;;;5.15;99.03;99843.38;5068133;28;20108;-67
2024/03/02 05:21:25;;;;;;;22.23;11.70;;;;;;;5.18;99.06;99851.09;5067926;28;20108;-67
2024/03/02 05:23:50;;;;;;;12.95;7.15;;;;;;;5.21;99.09;99856.28;5068237;28;20028;-66
2024/03/02 05:26:16;;;;;;;18.83;10.68;;;;;;;5.24;99.16;99850.25;5068071;28;20078;-67
2024/03/02 05:28:41;;;;;;;27.42;12.20;;;;;;;5.25;98.89;99840.84;5067665;28;20029;-67
2024/03/02 05:31:10;;;;;;;5.72;4.68;;;;;;;5.26;99.20;99834.81;5068052;28;20025;-67
2024/03/02 05:33:38;;;;;;;21.38;10.68;;;;;;;5.27;98.99;99836.56;5049783;28;20020;-68
2024/03/02 05:36:04;;;;;;;8.57;4.38;;;;;;;5.31;99.15;99840.88;5067686;28;20103;-68
2024/03/02 05:38:29;;;;;;;24.77;11.40;;;;;;;5.36;99.07;99841.75;5049884;28;20025;-67
2024/03/02 05:40:55;;;;;;;29.20;9.95;;;;;;;5.29;98.89;99824.53;5067945;28;20021;-67
2024/03/02 05:43:20;;;;;;;19.83;7.72;;;;;;;5.35;98.82;99840.03;5067549;28;20085;-66
2024/03/02 05:45:46;;;;;;;22.98;9.25;;;;;;;5.38;99.13;99832.31;5067618;28;20059;-66
2024/03/02 05:48:11;;;;;;;13.02;7.75;;;;;;;5.44;98.94;99841.78;5067589;28;20080;-67
2024/03/02 05:50:36;;;;;;;14.60;10.30;;;;;;;5.46;99.28;99840.06;5067662;28;20029;-67
2024/03/02 05:53:02;;;;;;;33.58;11.07;;;;;;;5.45;99.21;99841.78;5049381;28;20028;-67
2024/03/02 05:55:27;;;;;;;17.63;9.35;;;;;;;5.48;99.40;99837.50;5049532;28;20377;-66
2024/03/02 05:58:20;;;;;;;15.45;6.50;;;;;;;5.53;99.36;99841.81;5067575;28;20100;-66
2024/03/02 06:00:41;;;;;;;28.98;10.55;;;;;;;5.54;99.10;99834.94;5067252;28;20033;-67
2024/03/02 06:03:07;;;;;;;30.77;10.70;;;;;;;5.54;99.49;99840.94;5067277;28;20039;-66
2024/03/02 06:05:33;;;;;;;27.52;11.52;;;;;;;5.57;99.36;99850.41;5067274;28;20025;-66
2024/03/02 06:07:58;;;;;;;19.25;8.93;;;;;;;5.58;99.29;99844.38;5049277;28;20036;-66
2024/03/02 06:10:23;;;;;;;37.13;11.88;;;;;;;5.58;99.17;99850.41;5067141;28;20021;-68
2024/03/02 06:12:49;;;;;;;16.85;9.20;;;;;;;5.59;99.19;99848.72;5067004;28;20445;-65
2024/03/02 06:15:14;;;;;;;27.65;13.93;;;;;;;5.56;99.18;99844.38;5067145;28;20021;-67
2024/03/02 06:17:39;;;;;;;17.75;10.73;;;;;;;5.60;99.41;99853.00;5067094;28;20048;-66
2024/03/02 06:20:07;;;;;;;28.67;10.55;;;;;;;5.58;99.41;99850.41;5067111;28;20028;-66
2024/03/02 06:22:33;;;;;;;33.22;12.25;;;;;;;5.62;99.03;99853.88;5048909;28;20107;-66
2024/03/02 06:24:58;;;;;;;22.42;10.25;;;;;;;5.63;99.47;99852.13;5066752;28;20386;-67
2024/03/02 06:27:24;;;;;;;20.13;9.82;;;;;;;5.60;99.42;99854.69;5066766;28;20021;-66
2024/03/02 06:29:49;;;;;;;19.73;11.43;;;;;;;5.62;99.52;99851.28;5048680;28;20051;-66
2024/03/02 06:32:14;;;;;;;34.95;11.20;;;;;;;5.67;99.22;99856.44;5048979;28;20099;-66
2024/03/02 06:34:40;;;;;;;32.28;15.85;;;;;;;5.67;99.46;99859.88;5066898;28;20036;-66
2024/03/02 06:37:05;;;;;;;15.98;9.38;;;;;;;5.66;99.58;99847.84;5048804;28;20025;-68
2024/03/02 06:39:31;;;;;;;30.17;13.38;;;;;;;5.70;99.35;99851.31;5066633;28;20025;-66
2024/03/02 06:41:56;;;;;;;24.00;10.70;;;;;;;5.73;99.57;99856.47;5048617;28;20021;-66
2024/03/02 06:44:21;;;;;;;30.20;12.32;;;;;;;5.75;99.44;99856.47;5066247;28;20051;-66
2024/03/02 06:46:47;;;;;;;28.50;13.02;;;;;;;5.73;99.52;99848.75;5048635;28;20033;-67
2024/03/02 06:49:12;;;;;;;21.25;9.82;;;;;;;5.66;99.62;99842.69;5066230;28;20039;-67
2024/03/02 06:51:37;;;;;;;15.98;11.25;;;;;;;5.75;99.58;99865.03;5066349;28;20104;-67
2024/03/02 06:54:03;;;;;;;26.45;11.02;;;;;;;5.76;99.31;99858.19;5066238;28;20029;-67
2024/03/02 06:56:28;;;;;;;13.85;9.25;;;;;;;5.77;99.67;99859.88;5066377;28;20108;-67
2024/03/02 06:58:53;;;;;;;26.15;13.52;;;;;;;5.77;99.49;99859.88;5073492;28;20025;-71
2024/03/02 07:01:20;;;;;;;34.10;12.80;;;;;;;5.79;99.50;99858.19;5057389;28;20032;-71
2024/03/02 07:03:45;;;;;;;25.38;14.65;;;;;;;5.79;99.53;99861.63;5049460;28;20051;-72
2024/03/02 07:06:11;;;;;;;19.45;10.13;;;;;;;5.83;99.26;99857.34;5066256;28;20109;-72
2024/03/02 07:08:36;;;;;;;29.73;13.82;;;;;;;5.87;99.70;99869.38;5066231;28;20013;-71
2024/03/02 07:11:01;;;;;;;23.23;13.95;;;;;;;5.89;99.99;99859.94;5066442;28;20124;-72
2024/03/02 07:13:27;;;;;;;24.83;16.02;;;;;;;5.93;99.76;99856.50;5048222;28;20026;-71
2024/03/02 07:18:41;;;;;;;22.55;11.02;;;;;;;6.03;99.80;99861.66;5066109;28;20017;-71
2024/03/02 07:21:10;;;;;;;22.67;11.50;;;;;;;6.03;99.69;99861.66;5065903;28;20025;-66
2024/03/02 07:23:36;;;;;;;26.08;13.15;;;;;;;6.05;99.64;99852.25;5048036;28;20021;-73
2024/03/02 07:26:01;;;;;;;33.92;13.63;;;;;;;6.08;99.76;99860.00;5047939;28;20035;-74
2024/03/02 07:28:27;;;;;;;19.92;11.27;;;;;;;6.07;99.79;99855.72;5065824;28;20021;-73
2024/03/02 07:31:04;;;;;;;26.15;13.18;;;;;;;6.02;99.82;99845.34;5066010;28;20088;-73
2024/03/02 07:33:30;;;;;;;21.55;11.25;;;;;;;6.04;99.83;99853.06;5047715;28;20331;-72
2024/03/02 07:35:55;;;;;;;32.67;14.60;;;;;;;6.07;99.85;99842.81;5065051;28;20072;-71
2024/03/02 07:38:21;;;;;;;21.52;9.20;;;;;;;6.06;99.98;99851.38;5065753;28;20029;-72
2024/03/02 07:40:50;;;;;;;20.73;9.27;;;;;;;6.12;99.95;99851.41;5065631;28;20017;-71
2024/03/02 07:43:16;;;;;;;29.20;14.35;;;;;;;6.16;99.96;99850.56;5065570;28;20455;-73
2024/03/02 07:45:42;;;;;;;24.92;12.57;;;;;;;6.17;99.99;99848.81;5065451;28;20051;-71
2024/03/02 07:48:07;;;;;;;22.27;9.65;;;;;;;6.15;99.72;99856.56;5065575;28;20084;-72
2024/03/02 07:50:34;;;;;;;25.33;12.88;;;;;;;6.18;99.73;99848.81;5047383;28;20473;-71
2024/03/02 07:53:03;;;;;;;16.65;11.73;;;;;;;6.17;99.83;99846.25;5065426;28;20024;-72
2024/03/02 07:55:29;;;;;;;35.10;12.82;;;;;;;6.20;99.92;99852.25;5065337;28;20047;-72
2024/03/02 07:57:55;;;;;;;26.85;10.82;;;;;;;6.20;99.81;99847.13;5065272;28;20025;-71
2024/03/02 08:00:21;;;;;;;25.08;12.50;;;;;;;6.24;100.00;99847.13;5064845;28;20021;-71
2024/03/02 08:02:46;;;;;;;17.90;9.05;;;;;;;6.26;100.00;99843.66;5065232;28;20025;-71
2024/03/02 08:05:11;;;;;;;22.58;13.23;;;;;;;6.27;100.00;99844.53;5065068;28;20021;-72
2024/03/02 08:07:37;;;;;;;36.65;14.57;;;;;;;6.32;100.00;99856.59;5046867;28;20055;-72
2024/03/02 08:10:03;;;;;;;24.15;11.27;;;;;;;6.37;100.00;99860.88;5065107;28;20053;-67
2024/03/02 08:12:28;;;;;;;33.53;15.05;;;;;;;6.39;100.00;99848.84;5065018;28;20036;-69
2024/03/02 08:14:53;;;;;;;32.08;14.07;;;;;;;6.39;100.00;99838.53;5046846;28;20036;-71
2024/03/02 08:17:19;;;;;;;29.67;12.90;;;;;;;6.46;100.00;99847.97;5064941;28;20025;-71
2024/03/02 08:19:44;;;;;;;31.85;14.13;;;;;;;6.53;100.00;99856.56;5065155;28;20044;-73
2024/03/02 08:22:10;;;;;;;19.85;11.32;;;;;;;6.56;100.00;99851.41;5064675;28;20024;-73
2024/03/02 08:24:36;;;;;;;25.40;14.25;;;;;;;6.63;100.00;99855.69;5046579;28;20122;-71
2024/03/02 08:27:01;;;;;;;35.80;14.95;;;;;;;6.65;100.00;99847.94;5064866;28;20021;-72
2024/03/02 08:29:27;;;;;;;22.23;12.35;;;;;;;6.72;100.00;99844.50;5046812;28;20021;-72
2024/03/02 08:31:52;;;;;;;22.92;14.55;;;;;;;6.78;100.00;99851.38;5064802;28;20053;-73
2024/03/02 08:34:18;;;;;;;26.50;12.13;;;;;;;6.79;100.00;99833.31;5065404;28;20081;-74
2024/03/02 08:36:43;;;;;;;30.52;12.15;;;;;;;6.90;100.00;99846.19;5064687;28;20021;-73
2024/03/02 08:39:26;;;;;;;33.92;14.20;;;;;;;6.93;99.95;99847.91;5064748;28;20381;-73
2024/03/02 08:41:53;;;;;;;28.65;11.65;;;;;;;6.97;99.81;99841.00;5064713;28;20028;-73
2024/03/02 08:44:18;;;;;;;23.50;15.15;;;;;;;7.02;99.62;99841.84;5046544;28;20021;-74
2024/03/02 08:46:43;;;;;;;38.25;15.35;;;;;;;7.06;99.77;99841.00;5046989;28;20024;-73
2024/03/02 08:49:10;;;;;;;19.27;8.98;;;;;;;7.07;99.84;99835.84;5066744;28;20025;-74
2024/03/02 08:51:35;;;;;;;14.15;11.15;;;;;;;6.97;99.38;99815.19;5050898;28;20028;-74
2024/03/02 08:54:00;;;;;;;22.88;13.05;;;;;;;7.12;99.56;99835.81;5068744;28;20025;-74
2024/03/02 08:56:26;;;;;;;29.20;14.65;;;;;;;7.17;99.77;99844.38;5050745;28;20025;-74
2024/03/02 08:58:52;;;;;;;29.88;16.30;;;;;;;7.20;99.73;99843.53;5051028;28;20021;-73
2024/03/02 09:01:19;;;;;;;49.38;16.67;;;;;;;7.27;99.91;99837.47;5050800;28;20025;-73
2024/03/02 09:03:45;;;;;;;38.38;13.98;;;;;;;7.34;99.66;99845.19;5068625;28;20027;-72
2024/03/02 09:06:11;;;;;;;15.10;6.88;;;;;;;7.38;99.38;99842.59;5068493;28;20084;-73
2024/03/02 09:08:36;;;;;;;36.40;14.93;;;;;;;7.40;99.51;99838.28;5068578;28;20025;-71
2024/03/02 09:11:03;;;;;;;33.90;11.25;;;;;;;7.43;99.48;99832.22;5068508;28;20104;-71
2024/03/02 09:13:29;;;;;;;45.17;18.23;;;;;;;7.53;99.63;99846.84;5050274;28;20050;-71
2024/03/02 09:15:54;;;;;;;22.52;12.77;;;;;;;7.64;99.21;99833.00;5068444;28;20084;-72
2024/03/02 09:18:20;;;;;;;35.95;14.00;;;;;;;7.66;99.33;99836.44;5068515;28;20021;-72
2024/03/02 09:20:45;;;;;;;24.30;14.90;;;;;;;7.69;99.48;99839.88;5068539;28;20066;-72
2024/03/02 09:23:11;;;;;;;28.58;13.43;;;;;;;7.75;98.97;99844.13;5050240;28;20063;-70
2024/03/02 09:25:37;;;;;;;18.92;11.77;;;;;;;7.79;99.39;99847.56;5068251;28;20024;-70
2024/03/02 09:28:02;;;;;;;24.08;11.57;;;;;;;7.85;98.58;99841.47;5068235;28;20084;-72
2024/03/02 09:30:28;;;;;;;36.90;18.10;;;;;;;7.81;99.04;99845.84;5067933;28;20025;-72
2024/03/02 09:32:53;;;;;;;33.50;16.25;;;;;;;7.87;98.96;99840.63;5050313;28;20048;-71
2024/03/02 09:35:19;;;;;;;16.35;10.65;;;;;;;7.91;98.60;99836.28;5067969;28;20033;-72
2024/03/02 09:37:45;;;;;;;38.30;18.95;;;;;;;7.94;98.42;99846.59;5067791;28;20029;-71
2024/03/02 09:40:11;;;;;;;35.30;13.68;;;;;;;7.91;98.76;99838.84;5067959;28;20036;-71
2024/03/02 09:42:37;;;;;;;29.33;17.13;;;;;;;7.93;98.53;99838.00;5049850;28;20075;-71
2024/03/02 09:45:02;;;;;;;47.10;16.80;;;;;;;7.94;98.73;99838.84;5067621;28;20046;-72
2024/03/02 09:47:28;;;;;;;20.77;11.18;;;;;;;8.03;98.56;99846.56;5067812;28;20025;-71
2024/03/02 09:49:55;;;;;;;25.13;11.85;;;;;;;8.10;98.60;99854.25;5067684;28;20071;-72
2024/03/02 09:52:21;;;;;;;33.22;15.85;;;;;;;8.22;96.49;99850.72;5049479;28;20035;-71
2024/03/02 09:54:48;;;;;;;16.08;9.15;;;;;;;8.08;97.59;99843.94;5067839;28;20032;-72
2024/03/02 09:57:14;;;;;;;37.05;14.45;;;;;;;8.05;97.97;99833.63;5067624;28;20469;-72
2024/03/02 09:59:39;;;;;;;26.52;13.57;;;;;;;8.19;97.03;99849.84;5067104;28;20027;-72
2024/03/02 10:02:06;;;;;;;23.73;11.98;;;;;;;8.10;96.77;99837.00;5067308;28;20036;-72
2024/03/02 10:04:33;;;;;;;26.35;13.02;;;;;;;8.13;97.00;99834.38;5067525;28;20025;-72
2024/03/02 10:07:12;;;;;;;33.95;17.00;;;;;;;8.15;97.20;99845.59;5067235;28;20492;-72
2024/03/02 10:09:37;;;;;;;14.52;9.68;;;;;;;8.22;97.47;99848.13;5067393;28;20040;-73
2024/03/02 10:12:08;;;;;;;35.35;14.50;;;;;;;8.22;96.99;99832.59;5049301;28;20025;-73
2024/03/02 10:14:33;;;;;;;36.78;17.38;;;;;;;8.25;96.09;99850.69;5049172;28;20119;-73
2024/03/02 10:17:03;;;;;;;5.50;5.07;;;;;;;8.30;95.82;99844.63;5049360;28;20017;-73
2024/03/02 10:19:32;;;;;;;19.33;7.72;;;;;;;8.27;95.42;99849.81;5049344;28;20037;-73
2024/03/02 10:21:58;;;;;;;24.90;12.73;;;;;;;8.23;95.46;99847.25;5048959;28;20453;-74
2024/03/02 10:24:24;;;;;;;24.25;13.15;;;;;;;8.22;95.82;99850.72;5067186;28;20043;-74
2024/03/02 10:26:51;;;;;;;9.32;6.95;;;;;;;8.22;95.62;99853.28;5067157;28;20048;-74
2024/03/02 10:29:16;;;;;;;32.95;13.50;;;;;;;8.09;96.44;99855.97;5066941;28;20418;-71
2024/03/02 10:31:44;;;;;;;37.25;14.98;;;;;;;8.25;95.78;99845.50;5048809;28;20527;-71
2024/03/02 10:34:10;;;;;;;27.90;12.60;;;;;;;8.16;96.17;99849.88;5066621;28;20025;-71
2024/03/02 10:36:37;;;;;;;30.50;16.90;;;;;;;8.11;96.74;99845.63;5066592;28;20048;-69
2024/03/02 10:39:07;;;;;;;20.85;10.15;;;;;;;8.12;97.41;99845.63;5066972;28;20060;-70
2024/03/02 10:41:37;;;;;;;38.78;18.88;;;;;;;8.18;97.09;99849.88;5066694;28;20025;-71
2024/03/02 10:44:04;;;;;;;28.67;14.02;;;;;;;8.23;96.03;99849.84;5066736;28;20044;-70
2024/03/02 10:46:31;;;;;;;21.05;9.93;;;;;;;8.21;96.73;99843.84;5048485;28;20040;-72
2024/03/02 10:49:02;;;;;;;18.95;11.23;;;;;;;8.26;96.22;99847.25;5066550;28;20044;-71
2024/03/02 10:51:31;;;;;;;24.95;11.27;;;;;;;8.21;96.30;99841.25;5048291;28;20025;-71
2024/03/02 10:54:03;;;;;;;15.60;9.10;;;;;;;8.23;96.78;99842.06;5066491;28;20024;-71
2024/03/02 10:56:40;;;;;;;18.25;7.63;;;;;;;8.29;96.23;99842.06;5066839;28;20491;-70
2024/03/02 10:59:28;;;;;;;11.90;5.05;;;;;;;8.35;96.24;99846.31;5048736;28;20029;-71
2024/03/02 11:01:58;;;;;;;13.30;8.75;;;;;;;8.25;96.30;99840.34;5048457;28;20024;-71
2024/03/02 11:04:25;;;;;;;9.65;5.82;;;;;;;8.30;96.16;99846.34;5066135;28;20054;-70
2024/03/02 11:06:51;;;;;;;31.00;12.63;;;;;;;8.25;96.29;99840.34;5066206;28;20025;-70
2024/03/02 11:09:23;;;;;;;6.05;3.95;;;;;;;8.31;96.92;99841.16;5066057;28;20029;-70
2024/03/02 11:12:23;;;;;;;19.92;13.30;;;;;;;8.25;97.05;99835.16;5065308;28;20025;-70
2024/03/02 11:14:51;;;;;;;16.95;12.80;;;;;;;8.26;96.75;99844.66;5037216;28;20032;-69
2024/03/02 11:17:18;;;;;;;19.27;8.43;;;;;;;8.28;97.15;99841.19;5066105;28;20021;-70
2024/03/02 11:19:45;;;;;;;18.75;8.40;;;;;;;8.37;96.03;99835.06;5066111;28;20033;-70
2024/03/02 11:22:11;;;;;;;5.93;5.00;;;;;;;8.46;95.55;99848.78;5065768;28;20025;-71
2024/03/02 11:24:37;;;;;;;17.65;12.52;;;;;;;8.28;96.05;99840.31;5065843;28;20416;-70
2024/03/02 11:27:12;;;;;;;18.33;9.10;;;;;;;8.28;96.79;99843.78;5066042;28;20052;-71
2024/03/02 11:29:40;;;;;;;22.50;13.23;;;;;;;8.22;97.31;99841.25;5065833;28;20017;-69
2024/03/02 11:32:21;;;;;;;14.35;8.13;;;;;;;8.20;97.85;99848.13;5066929;28;20032;-71